createdAt,value
2022-11-30T00:01:53.025Z,16.00
2022-11-30T00:04:20.870Z,14.25
2022-11-30T00:06:48.737Z,15.00
2022-11-30T00:09:18.253Z,15.00
2022-11-30T00:11:46.093Z,17.00
2022-11-30T00:14:13.952Z,14.00
2022-11-30T00:16:41.898Z,14.75
2022-11-30T00:19:10.099Z,14.50
2022-11-30T00:21:37.989Z,15.00
2022-11-30T00:24:06.773Z,15.00
2022-11-30T00:26:39.037Z,15.50
2022-11-30T00:29:06.939Z,14.75
2022-11-30T00:31:34.802Z,15.00
2022-11-30T00:34:02.662Z,17.00
2022-11-30T00:36:30.536Z,13.25
2022-11-30T00:38:58.394Z,15.00
2022-11-30T00:41:26.622Z,14.75
2022-11-30T00:43:55.881Z,14.00
2022-11-30T00:46:23.824Z,14.00
2022-11-30T00:48:51.722Z,15.00
2022-11-30T00:51:20.468Z,12.75
2022-11-30T00:53:48.773Z,14.00
2022-11-30T00:56:16.731Z,15.50
2022-11-30T00:58:45.044Z,14.00
2022-11-30T01:01:14.622Z,14.25
2022-11-30T01:03:42.548Z,12.50
2022-11-30T01:06:10.654Z,14.00
2022-11-30T01:08:38.669Z,14.00
2022-11-30T01:11:08.255Z,14.00
2022-11-30T01:13:36.236Z,13.50
2022-11-30T01:16:09.815Z,13.50
2022-11-30T01:18:39.485Z,13.50
2022-11-30T01:21:08.645Z,13.75
2022-11-30T01:23:36.558Z,12.25
2022-11-30T01:26:04.454Z,12.75
2022-11-30T01:28:32.296Z,16.00
2022-11-30T01:31:00.924Z,13.25
2022-11-30T01:33:28.876Z,12.75
2022-11-30T01:36:02.223Z,14.00
2022-11-30T01:38:33.172Z,13.00
2022-11-30T01:41:02.468Z,12.00
2022-11-30T01:43:40.930Z,14.25
2022-11-30T01:46:20.103Z,13.25
2022-11-30T01:48:57.150Z,13.00
2022-11-30T01:51:26.910Z,14.00
2022-11-30T01:53:54.897Z,12.75
2022-11-30T01:56:22.818Z,11.50
2022-11-30T01:58:50.743Z,11.00
2022-11-30T02:01:18.883Z,10.75
2022-11-30T02:03:49.168Z,12.25
2022-11-30T02:06:17.023Z,11.50
2022-11-30T02:08:46.343Z,11.50
2022-11-30T02:11:15.127Z,11.75
2022-11-30T02:13:58.149Z,11.75
2022-11-30T02:16:28.736Z,12.00
2022-11-30T02:19:00.437Z,12.00
2022-11-30T02:21:31.265Z,10.50
2022-11-30T02:24:07.888Z,12.50
2022-11-30T02:26:53.545Z,13.50
2022-11-30T02:29:22.961Z,11.00
2022-11-30T02:31:52.605Z,12.25
2022-11-30T02:34:21.662Z,11.50
2022-11-30T02:36:49.544Z,11.75
2022-11-30T02:39:18.126Z,10.00
2022-11-30T02:41:45.999Z,11.00
2022-11-30T02:44:13.878Z,12.25
2022-11-30T02:46:53.991Z,10.00
2022-11-30T02:49:25.063Z,10.50
2022-11-30T02:51:52.902Z,11.00
2022-11-30T02:54:20.780Z,11.50
2022-11-30T02:56:48.979Z,11.75
2022-11-30T02:59:17.115Z,10.75
2022-11-30T03:01:46.429Z,12.00
2022-11-30T03:04:14.334Z,11.00
2022-11-30T03:06:42.172Z,11.50
2022-11-30T03:09:10.361Z,11.25
2022-11-30T03:11:38.249Z,10.75
2022-11-30T03:14:06.129Z,11.00
2022-11-30T03:16:34.430Z,11.50
2022-11-30T03:19:03.967Z,10.50
2022-11-30T03:21:31.851Z,11.00
2022-11-30T03:23:59.787Z,11.00
2022-11-30T03:26:27.680Z,10.00
2022-11-30T03:28:55.502Z,11.50
2022-11-30T03:31:23.491Z,12.00
2022-11-30T03:33:51.392Z,10.75
2022-11-30T03:36:20.627Z,10.50
2022-11-30T03:38:48.699Z,10.75
2022-11-30T03:41:17.894Z,11.50
2022-11-30T03:43:45.860Z,10.75
2022-11-30T03:46:13.812Z,11.00
2022-11-30T03:48:42.146Z,11.00
2022-11-30T03:51:10.857Z,11.00
2022-11-30T03:53:40.233Z,12.25
2022-11-30T03:56:09.166Z,9.00
2022-11-30T03:58:37.029Z,11.25
2022-11-30T04:01:06.341Z,11.00
2022-11-30T04:03:34.215Z,11.25
2022-11-30T04:06:02.091Z,9.25
2022-11-30T04:08:30.027Z,11.75
2022-11-30T04:11:00.059Z,11.00
2022-11-30T04:13:28.137Z,10.75
2022-11-30T04:15:56.174Z,11.50
2022-11-30T04:18:24.884Z,10.75
2022-11-30T04:20:53.120Z,10.75
2022-11-30T04:23:21.370Z,10.50
2022-11-30T04:25:49.249Z,11.00
2022-11-30T04:28:18.612Z,11.00
2022-11-30T04:30:46.907Z,10.00
2022-11-30T04:33:14.957Z,10.50
2022-11-30T04:35:42.924Z,10.50
2022-11-30T04:38:10.832Z,10.75
2022-11-30T04:40:40.697Z,10.75
2022-11-30T04:43:08.554Z,11.50
2022-11-30T04:45:37.873Z,12.00
2022-11-30T04:48:06.173Z,10.00
2022-11-30T04:50:34.370Z,11.75
2022-11-30T04:53:02.284Z,11.00
2022-11-30T04:55:30.227Z,9.00
2022-11-30T04:57:58.167Z,11.75
2022-11-30T05:00:26.416Z,11.50
2022-11-30T05:02:56.533Z,11.75
2022-11-30T05:05:24.573Z,10.25
2022-11-30T05:07:52.709Z,11.25
2022-11-30T05:10:21.024Z,10.75
2022-11-30T05:12:50.206Z,10.00
2022-11-30T05:15:18.234Z,11.75
2022-11-30T05:17:46.092Z,10.00
2022-11-30T05:20:15.693Z,12.00
2022-11-30T05:22:43.597Z,10.75
2022-11-30T05:25:11.502Z,11.25
2022-11-30T05:27:39.366Z,13.25
2022-11-30T05:30:10.969Z,11.00
2022-11-30T05:32:39.606Z,12.25
2022-11-30T05:35:07.989Z,12.50
2022-11-30T05:37:37.602Z,11.75
2022-11-30T05:40:08.304Z,12.00
2022-11-30T05:42:36.184Z,12.50
2022-11-30T05:45:04.254Z,10.75
2022-11-30T05:47:32.121Z,12.00
2022-11-30T05:50:00.292Z,11.75
2022-11-30T05:52:28.226Z,15.00
2022-11-30T05:54:59.400Z,12.00
2022-11-30T05:57:27.297Z,16.50
2022-11-30T05:59:55.448Z,14.75
2022-11-30T06:02:27.871Z,14.00
2022-11-30T06:04:56.106Z,17.00
2022-11-30T06:07:24.031Z,13.25
2022-11-30T06:09:52.438Z,14.75
2022-11-30T06:12:21.722Z,13.75
2022-11-30T06:14:50.806Z,16.25
2022-11-30T06:17:18.765Z,16.25
2022-11-30T06:19:46.893Z,15.00
2022-11-30T06:22:14.943Z,15.00
2022-11-30T06:24:42.810Z,13.00
2022-11-30T06:27:10.726Z,15.75
2022-11-30T06:29:39.973Z,14.75
2022-11-30T06:32:08.331Z,17.25
2022-11-30T06:34:36.386Z,16.25
2022-11-30T06:37:04.295Z,15.25
2022-11-30T06:40:04.436Z,20.00
2022-11-30T06:42:20.879Z,16.50
2022-11-30T06:44:50.246Z,18.75
2022-11-30T06:47:18.192Z,17.00
2022-11-30T06:49:46.354Z,18.00
2022-11-30T06:52:14.225Z,18.50
2022-11-30T06:54:42.091Z,18.00
2022-11-30T06:57:09.977Z,18.75
2022-11-30T06:59:42.214Z,18.50
2022-11-30T07:02:17.449Z,19.00
2022-11-30T07:04:47.018Z,20.00
2022-11-30T07:07:15.258Z,18.00
2022-11-30T07:09:43.430Z,18.25
2022-11-30T07:12:11.310Z,16.50
2022-11-30T07:14:39.238Z,18.25
2022-11-30T07:17:07.111Z,18.25
2022-11-30T07:19:36.755Z,16.75
2022-11-30T07:22:04.595Z,16.25
2022-11-30T07:24:52.556Z,18.75
2022-11-30T07:27:20.420Z,18.00
2022-11-30T07:29:52.496Z,18.25
2022-11-30T07:32:20.736Z,16.50
2022-11-30T07:34:50.375Z,18.25
2022-11-30T07:37:19.449Z,17.75
2022-11-30T07:39:47.342Z,17.00
2022-11-30T07:42:17.049Z,16.00
2022-11-30T07:44:45.133Z,15.75
2022-11-30T07:47:13.233Z,16.75
2022-11-30T07:49:41.346Z,16.50
2022-11-30T07:52:10.648Z,14.75
2022-11-30T07:54:38.506Z,15.75
2022-11-30T07:57:06.499Z,15.75
2022-11-30T07:59:34.737Z,16.75
2022-11-30T08:02:02.938Z,14.50
2022-11-30T08:04:30.962Z,15.00
2022-11-30T08:06:59.112Z,16.00
2022-11-30T08:09:28.663Z,15.00
2022-11-30T08:11:56.600Z,14.50
2022-11-30T08:14:24.488Z,14.00
2022-11-30T08:16:52.380Z,14.75
2022-11-30T08:19:20.596Z,12.75
2022-11-30T08:21:48.490Z,14.25
2022-11-30T08:24:16.446Z,14.75
2022-11-30T08:26:45.990Z,12.75
2022-11-30T08:29:14.182Z,14.00
2022-11-30T08:31:42.078Z,13.00
2022-11-30T08:34:11.876Z,13.50
2022-11-30T08:36:40.028Z,14.00
2022-11-30T08:39:09.204Z,14.25
2022-11-30T08:41:39.062Z,13.75
2022-11-30T08:44:08.463Z,11.75
2022-11-30T08:46:53.218Z,13.00
2022-11-30T08:49:23.584Z,13.25
2022-11-30T08:54:42.751Z,11.25
2022-11-30T08:57:10.811Z,12.50
2022-11-30T08:59:40.146Z,11.50
2022-11-30T09:02:08.246Z,12.00
2022-11-30T09:04:36.251Z,11.00
2022-11-30T09:07:04.367Z,12.00
2022-11-30T09:09:32.734Z,13.00
2022-11-30T09:12:00.610Z,13.25
2022-11-30T09:14:28.515Z,13.00
2022-11-30T09:16:57.782Z,11.50
2022-11-30T09:19:27.319Z,11.25
2022-11-30T09:21:55.185Z,13.25
2022-11-30T09:24:23.127Z,11.50
2022-11-30T09:26:51.077Z,11.00
2022-11-30T09:29:19.294Z,10.50
2022-11-30T09:31:47.200Z,11.75
2022-11-30T09:34:16.458Z,11.50
2022-11-30T09:36:44.316Z,10.25
2022-11-30T09:39:12.822Z,10.75
2022-11-30T09:41:54.343Z,11.25
2022-11-30T09:44:24.804Z,11.00
2022-11-30T09:46:56.751Z,11.00
2022-11-30T09:49:26.983Z,11.00
2022-11-30T09:51:56.794Z,11.25
2022-11-30T09:54:35.527Z,9.75
2022-11-30T09:57:04.680Z,10.75
2022-11-30T09:59:33.029Z,12.00
2022-11-30T10:02:01.106Z,12.50
2022-11-30T10:04:30.608Z,12.25
2022-11-30T10:07:04.454Z,12.25
2022-11-30T10:09:39.905Z,11.25
2022-11-30T10:12:10.421Z,9.75
2022-11-30T10:15:00.746Z,12.50
2022-11-30T10:17:35.897Z,12.25
2022-11-30T10:20:25.247Z,13.25
2022-11-30T10:23:01.553Z,14.50
2022-11-30T10:25:30.930Z,11.50
2022-11-30T10:28:12.617Z,12.75
2022-11-30T10:30:49.391Z,11.25
2022-11-30T10:33:18.511Z,13.00
2022-11-30T10:35:48.476Z,12.25
2022-11-30T10:38:18.705Z,14.00
2022-11-30T10:40:48.967Z,14.75
2022-11-30T10:43:19.807Z,12.50
2022-11-30T10:45:49.224Z,11.75
2022-11-30T10:48:19.063Z,12.75
2022-11-30T10:50:48.643Z,14.25
2022-11-30T10:53:16.462Z,11.75
2022-11-30T10:55:45.739Z,13.75
2022-11-30T10:58:21.008Z,14.00
2022-11-30T11:00:56.551Z,13.75
2022-11-30T11:03:25.487Z,14.50
2022-11-30T11:06:09.104Z,15.25
2022-11-30T11:08:36.990Z,16.25
2022-11-30T11:11:06.205Z,13.75
2022-11-30T11:13:38.527Z,14.25
2022-11-30T11:16:07.312Z,15.00
2022-11-30T11:18:35.389Z,16.50
2022-11-30T11:21:07.266Z,18.00
2022-11-30T11:23:37.110Z,15.00
2022-11-30T11:26:05.253Z,17.50
2022-11-30T11:28:33.230Z,14.75
2022-11-30T11:31:01.136Z,17.75
2022-11-30T11:33:29.584Z,16.25
2022-11-30T11:36:13.392Z,14.50
2022-11-30T11:38:44.086Z,13.75
2022-11-30T11:41:22.533Z,17.00
2022-11-30T11:44:02.581Z,15.00
2022-11-30T11:46:31.055Z,16.00
2022-11-30T11:48:59.768Z,16.00
2022-11-30T11:51:31.838Z,18.00
2022-11-30T11:54:02.779Z,15.50
2022-11-30T11:56:32.477Z,16.75
2022-11-30T11:59:01.685Z,18.25
2022-11-30T12:01:40.727Z,17.00
2022-11-30T12:04:22.828Z,17.25
2022-11-30T12:06:51.494Z,16.00
2022-11-30T12:09:23.222Z,16.75
2022-11-30T12:11:51.237Z,17.50
2022-11-30T12:14:19.949Z,15.75
2022-11-30T12:17:03.947Z,15.50
2022-11-30T12:19:35.407Z,17.00
2022-11-30T12:22:07.147Z,16.50
2022-11-30T12:24:42.271Z,15.75
2022-11-30T12:27:15.859Z,17.00
2022-11-30T12:29:47.844Z,17.75
2022-11-30T12:32:21.579Z,17.75
2022-11-30T12:34:54.552Z,15.50
2022-11-30T12:37:25.715Z,14.00
2022-11-30T12:39:58.920Z,13.00
2022-11-30T12:42:29.388Z,15.75
2022-11-30T12:44:59.102Z,16.00
2022-11-30T12:47:34.964Z,15.50
2022-11-30T12:50:10.075Z,14.75
2022-11-30T12:52:43.156Z,15.25
2022-11-30T12:55:18.742Z,15.75
2022-11-30T12:57:48.656Z,14.50
2022-11-30T13:00:19.979Z,17.50
2022-11-30T13:03:32.198Z,16.50
2022-11-30T13:06:01.456Z,17.25
2022-11-30T13:08:31.675Z,16.00
2022-11-30T13:11:02.788Z,17.00
2022-11-30T13:13:31.258Z,17.00
2022-11-30T13:15:59.343Z,14.75
2022-11-30T13:18:27.297Z,16.25
2022-11-30T13:20:58.643Z,14.75
2022-11-30T13:23:35.891Z,15.00
2022-11-30T13:26:09.575Z,15.25
2022-11-30T13:28:56.170Z,13.75
2022-11-30T13:31:25.545Z,14.00
2022-11-30T13:33:58.879Z,17.00
2022-11-30T13:36:35.716Z,16.00
2022-11-30T13:39:19.279Z,14.50
2022-11-30T13:41:49.320Z,17.75
2022-11-30T13:44:26.713Z,15.25
2022-11-30T13:46:54.604Z,15.25
2022-11-30T13:49:23.912Z,16.25
2022-11-30T13:52:20.072Z,16.00
2022-11-30T13:54:43.918Z,17.00
2022-11-30T13:57:53.669Z,14.75
2022-11-30T14:00:49.117Z,15.50
2022-11-30T14:03:19.306Z,15.00
2022-11-30T14:05:47.311Z,17.00
2022-11-30T14:08:39.477Z,15.75
2022-11-30T14:11:44.550Z,17.00
2022-11-30T14:14:46.632Z,16.00
2022-11-30T14:17:24.240Z,15.25
2022-11-30T14:19:53.481Z,14.25
2022-11-30T14:22:21.391Z,13.00
2022-11-30T14:24:49.402Z,14.75
2022-11-30T14:27:22.252Z,15.50
2022-11-30T14:29:53.345Z,15.25
2022-11-30T14:32:28.756Z,16.00
2022-11-30T14:35:02.788Z,15.25
2022-11-30T14:37:33.304Z,16.25
2022-11-30T14:40:03.147Z,15.25
2022-11-30T14:42:32.423Z,15.00
2022-11-30T14:45:00.337Z,15.75
2022-11-30T14:47:31.223Z,15.50
2022-11-30T14:50:02.650Z,15.75
2022-11-30T14:52:50.758Z,16.50
2022-11-30T14:55:23.672Z,16.75
2022-11-30T14:57:53.754Z,17.75
2022-11-30T15:00:22.359Z,15.50
2022-11-30T15:02:51.658Z,13.75
2022-11-30T15:05:22.731Z,14.75
2022-11-30T15:07:51.055Z,13.00
2022-11-30T15:10:22.059Z,16.00
2022-11-30T15:12:53.028Z,14.50
2022-11-30T15:15:21.932Z,16.25
2022-11-30T15:17:55.453Z,14.75
2022-11-30T15:20:29.013Z,15.75
2022-11-30T15:22:58.364Z,14.50
2022-11-30T15:25:29.934Z,16.25
2022-11-30T15:27:58.518Z,15.75
2022-11-30T15:30:27.829Z,14.75
2022-11-30T15:32:57.147Z,16.25
2022-11-30T15:35:34.313Z,17.25
2022-11-30T15:38:16.855Z,19.25
2022-11-30T15:40:47.751Z,16.00
2022-11-30T15:43:22.483Z,16.50
2022-11-30T15:45:54.921Z,16.75
2022-11-30T15:48:30.350Z,14.25
2022-11-30T15:50:58.297Z,14.75
2022-11-30T15:53:28.459Z,16.75
2022-11-30T15:55:56.882Z,14.75
2022-11-30T15:58:30.466Z,16.25
2022-11-30T16:01:05.389Z,17.00
2022-11-30T16:03:34.977Z,16.75
2022-11-30T16:06:04.821Z,14.25
2022-11-30T16:08:32.980Z,14.75
2022-11-30T16:11:06.289Z,18.00
2022-11-30T16:13:35.691Z,15.50
2022-11-30T16:16:03.671Z,15.75
2022-11-30T16:18:32.082Z,15.50
2022-11-30T16:21:01.952Z,15.50
2022-11-30T16:23:30.028Z,14.00
2022-11-30T16:25:58.138Z,16.00
2022-11-30T16:28:26.067Z,16.50
2022-11-30T16:30:59.214Z,13.50
2022-11-30T16:33:31.153Z,17.25
2022-11-30T16:36:01.456Z,16.00
2022-11-30T16:38:29.360Z,14.25
2022-11-30T16:40:57.561Z,15.50
2022-11-30T16:43:26.781Z,17.50
2022-11-30T16:45:54.763Z,15.00
2022-11-30T16:48:22.716Z,15.50
2022-11-30T16:50:50.869Z,15.00
2022-11-30T16:53:22.793Z,15.25
2022-11-30T16:55:52.782Z,15.00
2022-11-30T16:58:22.172Z,15.25
2022-11-30T17:00:52.014Z,14.75
2022-11-30T17:03:20.995Z,14.75
2022-11-30T17:05:48.891Z,17.25
2022-11-30T17:08:17.019Z,15.75
2022-11-30T17:10:46.848Z,13.50
2022-11-30T17:13:15.682Z,13.75
2022-11-30T17:15:43.583Z,16.00
2022-11-30T17:18:11.721Z,17.75
2022-11-30T17:20:40.012Z,15.75
2022-11-30T17:23:08.111Z,15.25
2022-11-30T17:25:36.052Z,15.00
2022-11-30T17:28:05.632Z,16.25
2022-11-30T17:30:33.888Z,15.00
2022-11-30T17:33:01.829Z,16.50
2022-11-30T17:35:29.721Z,17.00
2022-11-30T17:37:57.572Z,15.50
2022-11-30T17:40:26.037Z,14.00
2022-11-30T17:42:53.940Z,14.75
2022-11-30T17:45:23.193Z,13.50
2022-11-30T17:47:51.136Z,15.00
2022-11-30T17:50:19.510Z,14.75
2022-11-30T17:52:47.391Z,14.50
2022-11-30T17:55:15.542Z,15.25
2022-11-30T17:57:43.448Z,14.75
2022-11-30T18:00:12.722Z,18.50
2022-11-30T18:02:42.063Z,16.00
2022-11-30T18:05:10.697Z,17.25
2022-11-30T18:07:38.632Z,14.25
2022-11-30T18:10:08.196Z,16.00
2022-11-30T18:12:36.408Z,15.75
2022-11-30T18:15:04.933Z,17.00
2022-11-30T18:17:33.354Z,17.00
2022-11-30T18:20:02.937Z,15.75
2022-11-30T18:22:32.745Z,15.75
2022-11-30T18:25:03.547Z,16.25
2022-11-30T18:31:22.076Z,16.25
2022-11-30T18:33:55.257Z,16.50
2022-11-30T18:36:24.754Z,17.50
2022-11-30T18:38:53.070Z,16.25
2022-11-30T18:41:22.351Z,14.00
2022-11-30T18:43:53.310Z,15.25
2022-11-30T18:46:21.300Z,15.50
2022-11-30T18:48:50.119Z,17.00
2022-11-30T18:51:19.223Z,16.25
2022-11-30T18:53:48.882Z,17.75
2022-11-30T18:56:17.905Z,19.00
2022-11-30T18:58:46.426Z,15.75
2022-11-30T19:01:15.462Z,15.75
2022-11-30T19:03:43.736Z,17.00
2022-11-30T19:06:11.888Z,15.75
2022-11-30T19:08:40.273Z,17.00
2022-11-30T19:11:10.625Z,15.75
2022-11-30T19:13:38.539Z,15.00
2022-11-30T19:16:07.361Z,16.25
2022-11-30T19:18:35.257Z,14.75
2022-11-30T19:21:05.410Z,17.75
2022-11-30T19:23:33.262Z,15.50
2022-11-30T19:26:01.859Z,14.50
2022-11-30T19:28:31.325Z,14.75
2022-11-30T19:30:59.633Z,15.75
2022-11-30T19:33:27.629Z,15.75
2022-11-30T19:36:00.891Z,17.50
2022-11-30T19:38:29.044Z,15.75
2022-11-30T19:40:56.925Z,14.75
2022-11-30T19:43:24.788Z,16.75
2022-11-30T19:45:54.154Z,14.25
2022-11-30T19:48:22.053Z,15.50
2022-11-30T19:50:50.292Z,15.25
2022-11-30T19:53:18.212Z,16.25
2022-11-30T19:55:46.062Z,15.25
2022-11-30T19:58:13.956Z,17.50
2022-11-30T20:00:42.138Z,15.00
2022-11-30T20:03:11.374Z,14.75
2022-11-30T20:05:39.361Z,14.75
2022-11-30T20:08:07.587Z,15.25
2022-11-30T20:10:35.859Z,14.75
2022-11-30T20:13:03.788Z,15.00
2022-11-30T20:15:31.656Z,15.50
2022-11-30T20:17:59.511Z,15.75
2022-11-30T20:20:29.141Z,15.00
2022-11-30T20:22:56.976Z,15.25
2022-11-30T20:25:25.071Z,14.00
2022-11-30T20:27:52.976Z,14.00
2022-11-30T20:30:21.435Z,13.00
2022-11-30T20:32:49.325Z,14.00
2022-11-30T20:35:17.519Z,14.00
2022-11-30T20:37:46.901Z,14.00
2022-11-30T20:40:14.869Z,14.50
2022-11-30T20:42:42.805Z,15.00
2022-11-30T20:45:11.101Z,11.75
2022-11-30T20:47:38.945Z,14.50
2022-11-30T20:50:08.382Z,13.50
2022-11-30T20:52:36.317Z,13.75
2022-11-30T20:55:05.991Z,13.75
2022-11-30T20:57:33.982Z,11.75
2022-11-30T21:00:02.402Z,13.75
2022-11-30T21:02:30.360Z,12.25
2022-11-30T21:04:58.371Z,12.00
2022-11-30T21:07:26.276Z,12.50
2022-11-30T21:09:55.494Z,13.00
2022-11-30T21:12:24.740Z,11.75
2022-11-30T21:14:52.565Z,11.00
2022-11-30T21:17:20.524Z,13.75
2022-11-30T21:19:49.849Z,13.75
2022-11-30T21:22:18.629Z,12.00
2022-11-30T21:24:47.118Z,13.75
2022-11-30T21:27:15.289Z,12.00
2022-11-30T21:29:44.974Z,11.75
2022-11-30T21:32:13.009Z,12.50
2022-11-30T21:34:42.290Z,12.75
2022-11-30T21:37:10.133Z,11.25
2022-11-30T21:39:38.442Z,12.00
2022-11-30T21:42:06.475Z,13.00
2022-11-30T21:44:34.516Z,13.00
2022-11-30T21:47:03.795Z,12.00
2022-11-30T21:49:32.093Z,11.25
2022-11-30T21:51:59.936Z,12.00
2022-11-30T21:54:27.852Z,12.25
2022-11-30T21:56:55.756Z,11.75
2022-11-30T21:59:23.903Z,11.50
2022-11-30T22:01:51.793Z,12.00
2022-11-30T22:04:21.110Z,11.50
2022-11-30T22:06:49.019Z,10.75
2022-11-30T22:09:17.759Z,13.50
2022-11-30T22:11:46.123Z,12.75
2022-11-30T22:14:15.704Z,13.25
2022-11-30T22:16:43.687Z,14.50
2022-11-30T22:19:12.199Z,11.75
2022-11-30T22:21:46.704Z,14.50
2022-11-30T22:24:17.836Z,13.75
2022-11-30T22:26:46.116Z,13.75
2022-11-30T22:29:15.400Z,14.75
2022-11-30T22:31:44.421Z,14.00
2022-11-30T22:34:12.573Z,16.75
2022-11-30T22:36:42.556Z,14.00
2022-11-30T22:39:12.513Z,14.00
2022-11-30T22:41:40.681Z,14.00
2022-11-30T22:44:08.652Z,14.25
2022-11-30T22:46:37.164Z,15.25
2022-11-30T22:49:06.597Z,16.50
2022-11-30T22:51:35.579Z,15.50
2022-11-30T22:54:05.405Z,15.25
2022-11-30T22:56:33.873Z,13.50
2022-11-30T22:59:02.191Z,15.25
2022-11-30T23:01:31.291Z,15.00
2022-11-30T23:04:02.459Z,15.50
2022-11-30T23:06:30.362Z,18.50
2022-11-30T23:08:59.257Z,14.75
2022-11-30T23:11:29.072Z,17.50
2022-11-30T23:13:56.941Z,16.25
2022-11-30T23:16:25.088Z,15.00
2022-11-30T23:18:54.028Z,18.50
2022-11-30T23:21:23.645Z,17.75
2022-11-30T23:23:51.599Z,17.50
2022-11-30T23:26:20.924Z,18.75
2022-11-30T23:28:51.003Z,18.50
2022-11-30T23:31:34.080Z,15.25
2022-11-30T23:34:05.103Z,17.75
2022-11-30T23:36:33.171Z,19.50
2022-11-30T23:39:02.054Z,17.75
2022-11-30T23:41:30.279Z,18.50
2022-11-30T23:43:59.535Z,18.25
2022-11-30T23:46:27.461Z,18.75
2022-11-30T23:48:55.966Z,16.00
2022-11-30T23:51:23.982Z,20.25
2022-11-30T23:53:51.927Z,18.50
2022-11-30T23:56:20.320Z,17.00
2022-11-30T23:58:48.246Z,17.00
